createdAt,value
2022-09-30T00:00:48.098Z,0.00
2022-09-30T00:01:48.364Z,0.00
2022-09-30T00:02:48.675Z,0.00
2022-09-30T00:03:48.955Z,0.00
2022-09-30T00:04:49.164Z,0.00
2022-09-30T00:05:49.517Z,0.00
2022-09-30T00:06:49.799Z,0.00
2022-09-30T00:07:50.038Z,0.00
2022-09-30T00:08:50.279Z,0.00
2022-09-30T00:09:50.530Z,0.00
2022-09-30T00:10:50.751Z,0.00
2022-09-30T00:11:51.103Z,0.00
2022-09-30T00:12:51.469Z,0.00
2022-09-30T00:13:51.672Z,0.00
2022-09-30T00:14:52.017Z,0.00
2022-09-30T00:15:52.381Z,0.00
2022-09-30T00:16:52.633Z,0.00
2022-09-30T00:17:52.862Z,0.00
2022-09-30T00:18:53.076Z,0.00
2022-09-30T00:19:53.303Z,0.00
2022-09-30T00:20:53.530Z,0.00
2022-09-30T00:21:53.893Z,0.00
2022-09-30T00:22:54.163Z,0.00
2022-09-30T00:23:54.416Z,0.00
2022-09-30T00:24:54.633Z,0.00
2022-09-30T00:25:54.860Z,0.00
2022-09-30T00:26:55.273Z,0.00
2022-09-30T00:27:55.545Z,0.00
2022-09-30T00:28:55.786Z,0.00
2022-09-30T00:29:56.043Z,0.00
2022-09-30T00:30:56.278Z,0.00
2022-09-30T00:31:56.519Z,0.00
2022-09-30T00:32:56.770Z,0.00
2022-09-30T00:33:57.006Z,0.00
2022-09-30T00:34:57.266Z,0.00
2022-09-30T00:35:57.524Z,0.00
2022-09-30T00:36:58.683Z,0.00
2022-09-30T00:37:58.116Z,0.00
2022-09-30T00:38:58.359Z,0.00
2022-09-30T00:39:58.587Z,0.00
2022-09-30T00:40:58.800Z,0.00
2022-09-30T00:41:59.143Z,0.00
2022-09-30T00:42:59.531Z,0.00
2022-09-30T00:43:59.806Z,0.00
2022-09-30T00:45:00.038Z,0.00
2022-09-30T00:46:00.359Z,0.00
2022-09-30T00:47:00.722Z,0.00
2022-09-30T00:48:00.985Z,0.00
2022-09-30T00:49:01.224Z,0.00
2022-09-30T00:50:01.459Z,0.00
2022-09-30T00:51:01.698Z,0.00
2022-09-30T00:52:01.939Z,0.00
2022-09-30T00:53:02.189Z,0.00
2022-09-30T00:54:02.469Z,0.00
2022-09-30T00:55:02.658Z,0.00
2022-09-30T00:56:03.108Z,0.00
2022-09-30T00:57:03.318Z,0.00
2022-09-30T00:58:03.829Z,0.00
2022-09-30T00:59:03.960Z,0.00
2022-09-30T01:00:04.209Z,0.00
2022-09-30T01:01:04.508Z,0.00
2022-09-30T01:02:04.798Z,0.00
2022-09-30T01:03:05.168Z,0.00
2022-09-30T01:04:05.487Z,0.00
2022-09-30T01:05:05.571Z,0.00
2022-09-30T01:06:05.896Z,0.00
2022-09-30T01:07:06.173Z,0.00
2022-09-30T01:08:06.466Z,0.00
2022-09-30T01:09:06.743Z,0.00
2022-09-30T01:10:06.960Z,0.00
2022-09-30T01:11:08.303Z,0.00
2022-09-30T01:12:07.488Z,0.00
2022-09-30T01:13:07.762Z,0.00
2022-09-30T01:14:08.022Z,0.00
2022-09-30T01:15:08.296Z,0.00
2022-09-30T01:16:08.597Z,0.00
2022-09-30T01:17:08.785Z,0.00
2022-09-30T01:18:09.151Z,0.00
2022-09-30T01:19:09.410Z,0.00
2022-09-30T01:20:09.654Z,0.00
2022-09-30T01:21:09.916Z,0.00
2022-09-30T01:22:10.160Z,0.00
2022-09-30T01:23:10.597Z,0.00
2022-09-30T01:24:10.713Z,0.00
2022-09-30T01:25:10.953Z,0.00
2022-09-30T01:26:11.164Z,0.00
2022-09-30T01:27:11.514Z,0.00
2022-09-30T01:28:11.784Z,0.00
2022-09-30T01:29:11.985Z,0.00
2022-09-30T01:30:12.327Z,0.00
2022-09-30T01:31:12.728Z,0.00
2022-09-30T01:32:13.033Z,0.00
2022-09-30T01:33:13.269Z,0.00
2022-09-30T01:34:13.494Z,0.00
2022-09-30T01:35:13.779Z,0.00
2022-09-30T01:36:13.987Z,0.00
2022-09-30T01:37:14.329Z,0.00
2022-09-30T01:38:14.747Z,0.00
2022-09-30T01:39:14.997Z,0.00
2022-09-30T01:40:15.247Z,0.00
2022-09-30T01:41:15.466Z,0.00
2022-09-30T01:42:15.805Z,0.00
2022-09-30T01:43:16.179Z,0.00
2022-09-30T01:44:16.421Z,0.00
2022-09-30T01:45:16.638Z,0.00
2022-09-30T01:46:17.044Z,0.00
2022-09-30T01:47:17.329Z,0.00
2022-09-30T01:48:17.570Z,0.00
2022-09-30T01:49:17.820Z,0.00
2022-09-30T01:50:18.028Z,0.00
2022-09-30T01:51:18.398Z,0.00
2022-09-30T01:52:18.629Z,0.00
2022-09-30T01:53:18.874Z,0.00
2022-09-30T01:54:19.120Z,0.00
2022-09-30T01:55:19.366Z,0.00
2022-09-30T01:56:19.616Z,0.00
2022-09-30T01:57:19.933Z,0.00
2022-09-30T01:58:20.207Z,0.00
2022-09-30T01:59:20.444Z,0.00
2022-09-30T02:00:20.661Z,0.00
2022-09-30T02:01:21.059Z,0.00
2022-09-30T02:02:21.433Z,0.00
2022-09-30T02:03:21.659Z,0.00
2022-09-30T02:04:21.881Z,0.00
2022-09-30T02:05:22.232Z,0.00
2022-09-30T02:06:22.468Z,0.00
2022-09-30T02:07:22.701Z,0.00
2022-09-30T02:08:22.973Z,0.00
2022-09-30T02:09:23.325Z,0.00
2022-09-30T02:10:23.475Z,0.00
2022-09-30T02:11:23.714Z,0.00
2022-09-30T02:12:23.954Z,0.00
2022-09-30T02:13:24.216Z,0.00
2022-09-30T02:14:24.462Z,0.00
2022-09-30T02:15:24.696Z,0.00
2022-09-30T02:16:25.010Z,0.00
2022-09-30T02:17:25.273Z,0.00
2022-09-30T02:18:25.554Z,0.00
2022-09-30T02:19:25.783Z,0.00
2022-09-30T02:20:25.993Z,0.00
2022-09-30T02:21:26.393Z,0.00
2022-09-30T02:22:26.644Z,0.00
2022-09-30T02:23:26.895Z,0.00
2022-09-30T02:24:27.144Z,0.00
2022-09-30T02:25:27.386Z,0.00
2022-09-30T02:26:27.596Z,0.00
2022-09-30T02:27:27.944Z,0.00
2022-09-30T02:28:28.185Z,0.00
2022-09-30T02:29:28.415Z,0.00
2022-09-30T02:30:28.647Z,0.00
2022-09-30T02:31:28.954Z,0.00
2022-09-30T02:32:29.231Z,0.00
2022-09-30T02:33:29.527Z,0.00
2022-09-30T02:34:29.793Z,0.00
2022-09-30T02:35:29.986Z,0.00
2022-09-30T02:36:30.348Z,0.00
2022-09-30T02:37:30.593Z,0.00
2022-09-30T02:38:30.837Z,0.00
2022-09-30T02:39:31.109Z,0.00
2022-09-30T02:40:31.333Z,0.00
2022-09-30T02:41:31.557Z,0.00
2022-09-30T02:42:31.938Z,0.00
2022-09-30T02:43:32.279Z,0.00
2022-09-30T02:44:32.507Z,0.00
2022-09-30T02:45:32.720Z,0.00
2022-09-30T02:46:33.109Z,0.00
2022-09-30T02:47:33.362Z,0.00
2022-09-30T02:48:33.608Z,0.00
2022-09-30T02:49:33.841Z,0.00
2022-09-30T02:50:34.059Z,0.00
2022-09-30T02:51:34.390Z,0.00
2022-09-30T02:52:34.706Z,0.00
2022-09-30T02:53:34.940Z,0.00
2022-09-30T02:54:35.225Z,0.00
2022-09-30T02:55:35.440Z,0.00
2022-09-30T02:56:35.842Z,0.00
2022-09-30T02:57:36.070Z,0.00
2022-09-30T02:58:36.346Z,0.00
2022-09-30T02:59:36.593Z,0.00
2022-09-30T03:00:36.875Z,0.00
2022-09-30T03:01:37.137Z,0.00
2022-09-30T03:02:37.370Z,0.00
2022-09-30T03:03:37.608Z,0.00
2022-09-30T03:04:37.830Z,0.00
2022-09-30T03:05:38.172Z,0.00
2022-09-30T03:06:38.521Z,0.00
2022-09-30T03:07:38.724Z,0.00
2022-09-30T03:08:39.098Z,0.00
2022-09-30T03:09:39.396Z,0.00
2022-09-30T03:10:39.654Z,0.00
2022-09-30T03:11:39.846Z,12.00
2022-09-30T03:12:40.202Z,12.00
2022-09-30T03:13:40.483Z,12.00
2022-09-30T03:14:40.761Z,12.00
2022-09-30T03:15:40.976Z,12.00
2022-09-30T03:16:41.407Z,8.00
2022-09-30T03:17:41.632Z,12.00
2022-09-30T03:18:42.015Z,4.00
2022-09-30T03:19:42.326Z,0.00
2022-09-30T03:20:42.595Z,0.00
2022-09-30T03:21:42.812Z,0.00
2022-09-30T03:22:43.195Z,0.00
2022-09-30T03:23:43.428Z,0.00
2022-09-30T03:24:43.645Z,0.00
2022-09-30T03:25:43.999Z,4.00
2022-09-30T03:26:44.267Z,4.00
2022-09-30T03:27:44.517Z,0.00
2022-09-30T03:28:44.781Z,0.00
2022-09-30T03:29:44.998Z,0.00
2022-09-30T03:30:45.341Z,0.00
2022-09-30T03:31:45.778Z,0.00
2022-09-30T03:32:45.979Z,0.00
2022-09-30T03:33:46.343Z,0.00
2022-09-30T03:34:46.547Z,0.00
2022-09-30T03:35:46.906Z,0.00
2022-09-30T03:36:47.127Z,0.00
2022-09-30T03:37:47.340Z,0.00
2022-09-30T03:38:47.783Z,0.00
2022-09-30T03:39:47.987Z,0.00
2022-09-30T03:40:48.350Z,0.00
2022-09-30T03:41:48.567Z,0.00
2022-09-30T03:42:48.903Z,0.00
2022-09-30T03:43:49.246Z,0.00
2022-09-30T03:44:49.603Z,0.00
2022-09-30T03:45:49.825Z,0.00
2022-09-30T03:46:50.225Z,0.00
2022-09-30T03:47:50.459Z,0.00
2022-09-30T03:48:50.822Z,0.00
2022-09-30T03:49:51.056Z,0.00
2022-09-30T03:50:51.397Z,0.00
2022-09-30T03:51:51.613Z,0.00
2022-09-30T03:52:51.960Z,0.00
2022-09-30T03:53:52.221Z,0.00
2022-09-30T03:54:52.429Z,0.00
2022-09-30T03:55:52.818Z,0.00
2022-09-30T03:56:53.102Z,0.00
2022-09-30T03:57:53.315Z,0.00
2022-09-30T03:58:53.573Z,0.00
2022-09-30T03:59:53.813Z,0.00
2022-09-30T04:00:54.075Z,0.00
2022-09-30T04:01:54.444Z,0.00
2022-09-30T04:02:57.740Z,0.00
2022-09-30T04:03:54.936Z,0.00
2022-09-30T04:04:55.345Z,0.00
2022-09-30T04:05:55.604Z,0.00
2022-09-30T04:06:55.805Z,4.00
2022-09-30T04:07:56.182Z,4.00
2022-09-30T04:08:56.454Z,4.00
2022-09-30T04:09:56.656Z,4.00
2022-09-30T04:10:56.976Z,0.00
2022-09-30T04:11:57.320Z,0.00
2022-09-30T04:12:57.649Z,0.00
2022-09-30T04:13:57.852Z,0.00
2022-09-30T04:14:58.195Z,0.00
2022-09-30T04:15:58.552Z,0.00
2022-09-30T04:16:58.758Z,0.00
2022-09-30T04:17:59.088Z,0.00
2022-09-30T04:18:59.434Z,0.00
2022-09-30T04:19:59.647Z,0.00
2022-09-30T04:20:59.967Z,0.00
2022-09-30T04:22:00.294Z,0.00
2022-09-30T04:23:00.656Z,0.00
2022-09-30T04:24:00.850Z,0.00
2022-09-30T04:25:01.175Z,0.00
2022-09-30T04:26:01.518Z,0.00
2022-09-30T04:27:01.846Z,0.00
2022-09-30T04:28:02.176Z,0.00
2022-09-30T04:29:02.500Z,0.00
2022-09-30T04:30:02.868Z,0.00
2022-09-30T04:31:03.140Z,4.00
2022-09-30T04:32:03.317Z,4.00
2022-09-30T04:33:03.686Z,0.00
2022-09-30T04:34:03.952Z,0.00
2022-09-30T04:35:04.281Z,4.00
2022-09-30T04:36:04.628Z,4.00
2022-09-30T04:37:10.012Z,4.00
2022-09-30T04:38:06.190Z,4.00
2022-09-30T04:39:05.461Z,4.00
2022-09-30T04:40:05.800Z,8.00
2022-09-30T04:41:06.130Z,8.00
2022-09-30T04:42:06.469Z,12.00
2022-09-30T04:43:06.803Z,12.00
2022-09-30T04:44:07.011Z,12.00
2022-09-30T04:45:07.351Z,16.00
2022-09-30T04:46:07.710Z,20.00
2022-09-30T04:47:08.028Z,24.00
2022-09-30T04:48:08.411Z,24.00
2022-09-30T04:49:09.456Z,28.00
2022-09-30T04:50:08.952Z,36.00
2022-09-30T04:51:09.163Z,36.00
2022-09-30T04:52:09.514Z,44.00
2022-09-30T04:53:09.863Z,48.00
2022-09-30T04:54:10.084Z,60.00
2022-09-30T04:55:10.445Z,68.00
2022-09-30T04:56:10.672Z,72.00
2022-09-30T04:57:10.896Z,80.00
2022-09-30T04:58:11.225Z,92.00
2022-09-30T04:59:11.564Z,100.00
2022-09-30T05:00:11.805Z,112.00
2022-09-30T05:01:12.118Z,120.00
2022-09-30T05:02:12.471Z,132.00
2022-09-30T05:03:12.686Z,144.00
2022-09-30T05:04:12.914Z,152.00
2022-09-30T05:05:13.140Z,168.00
2022-09-30T05:06:13.541Z,184.00
2022-09-30T05:07:13.795Z,196.00
2022-09-30T05:08:14.091Z,212.00
2022-09-30T05:09:14.417Z,228.00
2022-09-30T05:10:14.643Z,244.00
2022-09-30T05:11:14.903Z,260.00
2022-09-30T05:12:15.147Z,284.00
2022-09-30T05:13:15.469Z,300.00
2022-09-30T05:14:15.717Z,324.00
2022-09-30T05:15:15.946Z,344.00
2022-09-30T05:16:16.227Z,372.00
2022-09-30T05:17:16.532Z,396.00
2022-09-30T05:18:16.764Z,424.00
2022-09-30T05:19:17.007Z,456.00
2022-09-30T05:20:20.941Z,484.00
2022-09-30T05:21:17.590Z,512.00
2022-09-30T05:22:17.832Z,548.00
2022-09-30T05:23:18.108Z,576.00
2022-09-30T05:24:18.372Z,608.00
2022-09-30T05:25:18.647Z,636.00
2022-09-30T05:26:18.917Z,664.00
2022-09-30T05:27:19.174Z,692.00
2022-09-30T05:28:19.446Z,716.00
2022-09-30T05:29:19.704Z,744.00
2022-09-30T05:30:20.036Z,772.00
2022-09-30T05:31:20.380Z,800.00
2022-09-30T05:32:20.640Z,828.00
2022-09-30T05:33:20.928Z,860.00
2022-09-30T05:34:21.191Z,884.00
2022-09-30T05:35:21.439Z,916.00
2022-09-30T05:36:21.691Z,944.00
2022-09-30T05:37:21.931Z,972.00
2022-09-30T05:38:22.160Z,1004.00
2022-09-30T05:39:22.507Z,1028.00
2022-09-30T05:40:22.683Z,1056.00
2022-09-30T05:41:22.940Z,1080.00
2022-09-30T05:42:23.182Z,1108.00
2022-09-30T05:43:23.414Z,1136.00
2022-09-30T05:44:23.688Z,1168.00
2022-09-30T05:45:23.933Z,1200.00
2022-09-30T05:46:24.259Z,1228.00
2022-09-30T05:47:24.522Z,1256.00
2022-09-30T05:48:24.780Z,1288.00
2022-09-30T05:49:25.010Z,1316.00
2022-09-30T05:50:25.253Z,1348.00
2022-09-30T05:51:25.503Z,1380.00
2022-09-30T05:52:25.745Z,1408.00
2022-09-30T05:53:26.001Z,1444.00
2022-09-30T05:54:26.266Z,1460.00
2022-09-30T05:55:26.524Z,1488.00
2022-09-30T05:56:26.806Z,1508.00
2022-09-30T05:57:27.064Z,1532.00
2022-09-30T05:58:27.312Z,1552.00
2022-09-30T05:59:27.574Z,1576.00
2022-09-30T06:00:27.832Z,1596.00
2022-09-30T06:01:28.150Z,1612.00
2022-09-30T06:02:28.535Z,1632.00
2022-09-30T06:03:28.669Z,1656.00
2022-09-30T06:04:28.945Z,1680.00
2022-09-30T06:05:29.717Z,1696.00
2022-09-30T06:06:29.535Z,1716.00
2022-09-30T06:07:29.792Z,1736.00
2022-09-30T06:08:30.042Z,1760.00
2022-09-30T06:09:30.391Z,1792.00
2022-09-30T06:10:30.528Z,1828.00
2022-09-30T06:11:30.810Z,1876.00
2022-09-30T06:12:31.066Z,1884.00
2022-09-30T06:13:31.308Z,1892.00
2022-09-30T06:14:31.557Z,1896.00
2022-09-30T06:15:31.794Z,1924.00
2022-09-30T06:16:32.201Z,1944.00
2022-09-30T06:17:32.277Z,1924.00
2022-09-30T06:18:32.526Z,1940.00
2022-09-30T06:19:32.776Z,1956.00
2022-09-30T06:20:33.031Z,1964.00
2022-09-30T06:21:33.299Z,1980.00
2022-09-30T06:22:33.570Z,1992.00
2022-09-30T06:23:33.837Z,2000.00
2022-09-30T06:24:34.088Z,2020.00
2022-09-30T06:25:34.350Z,2028.00
2022-09-30T06:26:34.631Z,2044.00
2022-09-30T06:27:34.882Z,2064.00
2022-09-30T06:28:35.129Z,2112.00
2022-09-30T06:29:35.380Z,2164.00
2022-09-30T06:30:35.705Z,2128.00
2022-09-30T06:31:36.052Z,2108.00
2022-09-30T06:32:36.213Z,2064.00
2022-09-30T06:33:36.480Z,2056.00
2022-09-30T06:34:36.742Z,2060.00
2022-09-30T06:35:37.022Z,2068.00
2022-09-30T06:36:37.263Z,2068.00
2022-09-30T06:37:37.523Z,2076.00
2022-09-30T06:38:37.783Z,2076.00
2022-09-30T06:39:38.036Z,2080.00
2022-09-30T06:40:38.294Z,2088.00
2022-09-30T06:41:38.745Z,2092.00
2022-09-30T06:42:38.840Z,2100.00
2022-09-30T06:43:43.506Z,2100.00
2022-09-30T06:44:50.865Z,2100.00
2022-09-30T06:45:41.578Z,2100.00
2022-09-30T06:46:51.908Z,2100.00
2022-09-30T06:47:47.113Z,2096.00
2022-09-30T06:48:41.492Z,2092.00
2022-09-30T06:49:49.282Z,2096.00
2022-09-30T06:50:48.618Z,2100.00
2022-09-30T06:51:42.533Z,2104.00
2022-09-30T06:52:41.555Z,2112.00
2022-09-30T06:53:41.844Z,2128.00
2022-09-30T06:54:42.085Z,2132.00
2022-09-30T06:55:42.336Z,2148.00
2022-09-30T06:56:42.620Z,2152.00
2022-09-30T06:57:42.878Z,2168.00
2022-09-30T06:58:43.136Z,2180.00
2022-09-30T06:59:43.418Z,2188.00
2022-09-30T07:00:43.740Z,2188.00
2022-09-30T07:01:43.995Z,2196.00
2022-09-30T07:02:44.268Z,2196.00
2022-09-30T07:03:44.565Z,2208.00
2022-09-30T07:04:44.836Z,2216.00
2022-09-30T07:05:45.087Z,2216.00
2022-09-30T07:06:45.372Z,2224.00
2022-09-30T07:07:45.611Z,2224.00
2022-09-30T07:08:45.867Z,2228.00
2022-09-30T07:09:46.194Z,2220.00
2022-09-30T07:10:46.470Z,2224.00
2022-09-30T07:11:46.743Z,2220.00
2022-09-30T07:12:47.010Z,2220.00
2022-09-30T07:13:47.288Z,2216.00
2022-09-30T07:14:47.526Z,2220.00
2022-09-30T07:15:47.752Z,2216.00
2022-09-30T07:16:48.125Z,2216.00
2022-09-30T07:17:48.252Z,2216.00
2022-09-30T07:18:48.520Z,2216.00
2022-09-30T07:19:48.750Z,2216.00
2022-09-30T07:20:49.061Z,2212.00
2022-09-30T07:21:49.363Z,2208.00
2022-09-30T07:22:49.630Z,2200.00
2022-09-30T07:23:49.885Z,2200.00
2022-09-30T07:24:50.132Z,2192.00
2022-09-30T07:25:50.406Z,2196.00
2022-09-30T07:26:50.718Z,2184.00
2022-09-30T07:27:51.004Z,2184.00
2022-09-30T07:28:51.282Z,2180.00
2022-09-30T07:30:08.440Z,2180.00
2022-09-30T07:31:03.600Z,2172.00
2022-09-30T07:31:53.080Z,2168.00
2022-09-30T07:32:52.374Z,2172.00
2022-09-30T07:33:52.726Z,2180.00
2022-09-30T07:34:53.025Z,2180.00
2022-09-30T07:35:53.347Z,2192.00
2022-09-30T07:36:53.666Z,2188.00
2022-09-30T07:37:53.973Z,2200.00
2022-09-30T07:38:54.281Z,2204.00
2022-09-30T07:39:54.584Z,2208.00
2022-09-30T07:40:54.929Z,2216.00
2022-09-30T07:41:55.305Z,2208.00
2022-09-30T07:42:55.535Z,2228.00
2022-09-30T07:43:55.738Z,2244.00
2022-09-30T07:44:56.105Z,2260.00
2022-09-30T07:45:56.445Z,2264.00
2022-09-30T07:46:56.709Z,2280.00
2022-09-30T07:47:56.959Z,2276.00
2022-09-30T07:48:57.202Z,2272.00
2022-09-30T07:49:57.459Z,2260.00
2022-09-30T07:50:57.739Z,2240.00
2022-09-30T07:51:57.977Z,2220.00
2022-09-30T07:52:58.233Z,2240.00
2022-09-30T07:53:58.502Z,2204.00
2022-09-30T07:54:58.737Z,2220.00
2022-09-30T07:55:58.990Z,2228.00
2022-09-30T07:57:14.663Z,2232.00
2022-09-30T07:58:00.559Z,2232.00
2022-09-30T07:58:59.851Z,2232.00
2022-09-30T08:00:08.144Z,2240.00
2022-09-30T08:01:01.470Z,2232.00
2022-09-30T08:02:00.804Z,2232.00
2022-09-30T08:03:01.105Z,2228.00
2022-09-30T08:04:01.353Z,2216.00
2022-09-30T08:05:01.662Z,2212.00
2022-09-30T08:06:01.927Z,2200.00
2022-09-30T08:07:02.209Z,2208.00
2022-09-30T08:08:02.442Z,2188.00
2022-09-30T08:09:02.749Z,2188.00
2022-09-30T08:10:03.005Z,2188.00
2022-09-30T08:11:03.264Z,2184.00
2022-09-30T08:12:03.504Z,2184.00
2022-09-30T08:13:05.691Z,2184.00
2022-09-30T08:14:04.096Z,2168.00
2022-09-30T08:15:04.356Z,2168.00
2022-09-30T08:17:26.930Z,0.00
2022-09-30T08:18:26.308Z,0.00
2022-09-30T08:19:26.329Z,0.00
2022-09-30T08:20:26.356Z,0.00
2022-09-30T08:21:26.339Z,0.00
2022-09-30T08:22:26.412Z,0.00
2022-09-30T08:23:26.420Z,0.00
2022-09-30T08:24:26.671Z,0.00
2022-09-30T08:25:26.444Z,0.00
2022-09-30T08:26:26.476Z,0.00
2022-09-30T08:27:26.500Z,0.00
2022-09-30T08:28:26.454Z,0.00
2022-09-30T08:30:27.489Z,0.00
2022-09-30T08:31:26.645Z,0.00
2022-09-30T08:32:26.494Z,0.00
2022-09-30T08:33:26.564Z,0.00
2022-09-30T08:34:26.506Z,0.00
2022-09-30T08:35:26.557Z,0.00
2022-09-30T08:36:26.564Z,0.00
2022-09-30T08:37:26.606Z,0.00
2022-09-30T08:38:26.647Z,0.00
2022-09-30T08:39:26.605Z,0.00
2022-09-30T08:40:26.707Z,0.00
2022-09-30T08:41:26.648Z,0.00
2022-09-30T08:42:48.359Z,0.00
2022-09-30T08:43:27.671Z,0.00
2022-09-30T08:44:26.679Z,0.00
2022-09-30T08:45:26.836Z,0.00
2022-09-30T08:46:26.852Z,0.00
2022-09-30T08:47:26.828Z,0.00
2022-09-30T08:48:26.729Z,0.00
2022-09-30T08:49:26.760Z,0.00
2022-09-30T08:50:26.800Z,0.00
2022-09-30T08:51:26.782Z,0.00
2022-09-30T08:52:37.339Z,0.00
2022-09-30T08:53:27.800Z,0.00
2022-09-30T08:54:26.830Z,0.00
2022-09-30T08:55:26.822Z,0.00
2022-09-30T08:56:26.844Z,0.00
2022-09-30T08:57:26.864Z,0.00
2022-09-30T08:58:26.843Z,0.00
2022-09-30T08:59:26.891Z,0.00
2022-09-30T09:00:26.882Z,0.00
2022-09-30T09:01:26.937Z,0.00
2022-09-30T09:02:26.935Z,0.00
2022-09-30T09:03:26.934Z,0.00
2022-09-30T09:04:26.963Z,0.00
2022-09-30T09:05:27.018Z,0.00
2022-09-30T09:06:27.056Z,0.00
2022-09-30T09:07:26.991Z,0.00
2022-09-30T09:08:27.017Z,0.00
2022-09-30T09:09:26.996Z,0.00
2022-09-30T09:10:27.027Z,0.00
2022-09-30T09:11:27.046Z,0.00
2022-09-30T09:12:27.036Z,0.00
2022-09-30T09:13:27.064Z,0.00
2022-09-30T09:14:27.096Z,0.00
2022-09-30T09:15:27.117Z,0.00
2022-09-30T09:16:27.135Z,0.00
2022-09-30T09:17:27.136Z,0.00
2022-09-30T09:18:27.188Z,0.00
2022-09-30T09:19:27.166Z,0.00
2022-09-30T09:20:27.227Z,0.00
2022-09-30T09:21:27.199Z,0.00
2022-09-30T09:22:27.168Z,0.00
2022-09-30T09:23:27.248Z,0.00
2022-09-30T09:24:27.202Z,0.00
2022-09-30T09:25:27.208Z,0.00
2022-09-30T09:26:27.249Z,0.00
2022-09-30T09:27:27.323Z,0.00
2022-09-30T09:28:27.344Z,0.00
2022-09-30T09:29:27.321Z,0.00
2022-09-30T09:30:27.283Z,0.00
2022-09-30T09:31:27.459Z,0.00
2022-09-30T09:32:27.361Z,0.00
2022-09-30T09:33:27.383Z,0.00
2022-09-30T09:34:27.344Z,0.00
2022-09-30T09:35:27.345Z,0.00
2022-09-30T09:36:27.393Z,0.00
2022-09-30T09:37:27.425Z,0.00
2022-09-30T09:38:27.386Z,0.00
2022-09-30T09:39:27.395Z,0.00
2022-09-30T09:40:27.455Z,0.00
2022-09-30T09:41:27.455Z,0.00
2022-09-30T09:42:27.544Z,0.00
2022-09-30T09:43:29.557Z,0.00
2022-09-30T09:44:27.518Z,0.00
2022-09-30T09:45:27.679Z,0.00
2022-09-30T09:46:27.572Z,0.00
2022-09-30T09:47:27.539Z,0.00
2022-09-30T09:48:27.570Z,0.00
2022-09-30T09:49:27.606Z,0.00
2022-09-30T09:50:27.584Z,0.00
2022-09-30T09:51:27.592Z,0.00
2022-09-30T09:52:27.606Z,0.00
2022-09-30T09:53:28.391Z,0.00
2022-09-30T09:54:27.617Z,0.00
2022-09-30T09:55:27.617Z,0.00
2022-09-30T09:56:32.037Z,0.00
2022-09-30T09:57:28.635Z,0.00
2022-09-30T09:58:27.663Z,0.00
2022-09-30T09:59:27.831Z,0.00
2022-09-30T10:00:27.679Z,0.00
2022-09-30T10:01:27.789Z,0.00
2022-09-30T10:02:27.774Z,0.00
2022-09-30T10:03:27.703Z,0.00
2022-09-30T10:04:27.731Z,0.00
2022-09-30T10:05:27.742Z,0.00
2022-09-30T10:06:27.785Z,0.00
2022-09-30T10:07:27.792Z,0.00
2022-09-30T10:08:27.785Z,0.00
2022-09-30T10:09:27.806Z,0.00
2022-09-30T10:10:27.812Z,0.00
2022-09-30T10:11:27.863Z,0.00
2022-09-30T10:12:27.827Z,0.00
2022-09-30T10:13:27.878Z,0.00
2022-09-30T10:14:27.846Z,0.00
2022-09-30T10:15:27.856Z,0.00
2022-09-30T10:16:27.897Z,0.00
2022-09-30T10:17:27.905Z,0.00
2022-09-30T10:18:27.926Z,0.00
2022-09-30T10:19:27.966Z,0.00
2022-09-30T10:20:27.945Z,0.00
2022-09-30T10:21:28.085Z,0.00
2022-09-30T10:22:27.989Z,0.00
2022-09-30T10:23:27.979Z,0.00
2022-09-30T10:24:27.988Z,0.00
2022-09-30T10:25:28.009Z,0.00
2022-09-30T10:27:28.028Z,0.00
2022-09-30T10:28:28.097Z,0.00
2022-09-30T10:29:28.108Z,0.00
2022-09-30T10:30:28.098Z,0.00
2022-09-30T10:31:28.296Z,0.00
2022-09-30T10:32:28.145Z,0.00
2022-09-30T10:33:28.153Z,0.00
2022-09-30T10:34:28.142Z,0.00
2022-09-30T10:35:28.180Z,0.00
2022-09-30T10:36:29.963Z,0.00
2022-09-30T10:37:51.526Z,0.00
2022-09-30T10:38:28.272Z,0.00
2022-09-30T10:39:28.201Z,0.00
2022-09-30T10:40:28.251Z,0.00
2022-09-30T10:41:28.661Z,0.00
2022-09-30T10:42:28.265Z,0.00
2022-09-30T10:43:28.256Z,0.00
2022-09-30T10:44:28.274Z,0.00
2022-09-30T10:45:28.344Z,0.00
2022-09-30T10:46:28.359Z,0.00
2022-09-30T10:47:31.300Z,0.00
2022-09-30T10:48:29.364Z,0.00
2022-09-30T10:49:28.327Z,0.00
2022-09-30T10:50:28.406Z,0.00
2022-09-30T10:51:28.857Z,0.00
2022-09-30T10:52:28.387Z,0.00
2022-09-30T10:53:28.408Z,0.00
2022-09-30T10:54:28.407Z,0.00
2022-09-30T10:55:28.428Z,0.00
2022-09-30T10:56:28.428Z,0.00
2022-09-30T10:57:28.466Z,0.00
2022-09-30T10:58:28.505Z,0.00
2022-09-30T10:59:28.470Z,0.00
2022-09-30T11:00:28.538Z,0.00
2022-09-30T11:01:28.832Z,0.00
2022-09-30T11:02:28.554Z,0.00
2022-09-30T11:03:28.619Z,0.00
2022-09-30T11:04:28.554Z,0.00
2022-09-30T11:05:28.612Z,0.00
2022-09-30T11:06:29.014Z,0.00
2022-09-30T11:07:28.596Z,0.00
2022-09-30T11:08:28.645Z,0.00
2022-09-30T11:09:28.695Z,0.00
2022-09-30T11:10:28.680Z,0.00
2022-09-30T11:11:28.674Z,0.00
2022-09-30T11:12:28.712Z,0.00
2022-09-30T11:13:28.683Z,0.00
2022-09-30T11:14:28.727Z,0.00
2022-09-30T11:15:28.758Z,0.00
2022-09-30T11:16:29.047Z,0.00
2022-09-30T11:17:28.766Z,0.00
2022-09-30T11:18:28.736Z,0.00
2022-09-30T11:19:28.764Z,0.00
2022-09-30T11:20:28.765Z,0.00
2022-09-30T11:21:28.824Z,0.00
2022-09-30T11:22:28.812Z,0.00
2022-09-30T11:23:28.840Z,0.00
2022-09-30T11:24:28.857Z,0.00
2022-09-30T11:25:28.874Z,0.00
2022-09-30T11:26:29.234Z,0.00
2022-09-30T11:27:28.868Z,0.00
2022-09-30T11:28:28.972Z,0.00
2022-09-30T11:29:28.898Z,0.00
2022-09-30T11:30:28.909Z,0.00
2022-09-30T11:31:29.020Z,0.00
2022-09-30T11:32:28.920Z,0.00
2022-09-30T11:33:28.937Z,0.00
2022-09-30T11:34:28.972Z,0.00
2022-09-30T11:35:28.980Z,0.00
2022-09-30T11:36:29.565Z,0.00
2022-09-30T11:37:29.001Z,0.00
2022-09-30T11:38:29.022Z,0.00
2022-09-30T11:39:29.031Z,0.00
2022-09-30T11:40:29.049Z,0.00
2022-09-30T11:41:29.088Z,0.00
2022-09-30T11:42:29.053Z,0.00
2022-09-30T11:43:29.073Z,0.00
2022-09-30T11:44:29.107Z,0.00
2022-09-30T11:45:29.152Z,0.00
2022-09-30T11:46:29.602Z,0.00
2022-09-30T11:47:29.168Z,0.00
2022-09-30T11:48:32.688Z,0.00
2022-09-30T11:49:29.155Z,0.00
2022-09-30T11:50:29.204Z,0.00
2022-09-30T11:51:29.187Z,0.00
2022-09-30T11:52:29.218Z,0.00
2022-09-30T11:53:29.268Z,0.00
2022-09-30T11:54:29.252Z,0.00
2022-09-30T11:55:29.302Z,0.00
2022-09-30T11:56:29.657Z,0.00
2022-09-30T11:57:29.299Z,0.00
2022-09-30T11:58:40.914Z,0.00
2022-09-30T11:59:30.310Z,0.00
2022-09-30T12:00:29.341Z,0.00
2022-09-30T12:01:29.334Z,0.00
2022-09-30T12:02:29.434Z,0.00
2022-09-30T12:03:29.413Z,0.00
2022-09-30T12:04:29.402Z,0.00
2022-09-30T12:05:29.410Z,0.00
2022-09-30T12:06:29.719Z,0.00
2022-09-30T12:07:29.422Z,0.00
2022-09-30T12:08:29.449Z,0.00
2022-09-30T12:09:29.443Z,0.00
2022-09-30T12:10:29.532Z,0.00
2022-09-30T12:11:29.485Z,0.00
2022-09-30T12:12:29.524Z,0.00
2022-09-30T12:13:29.515Z,0.00
2022-09-30T12:14:29.523Z,0.00
2022-09-30T12:15:30.336Z,0.00
2022-09-30T12:16:30.702Z,0.00
2022-09-30T12:17:31.235Z,0.00
2022-09-30T12:18:30.406Z,0.00
2022-09-30T12:19:29.636Z,0.00
2022-09-30T12:20:29.668Z,0.00
2022-09-30T12:21:29.641Z,0.00
2022-09-30T12:22:29.647Z,0.00
2022-09-30T12:23:29.668Z,0.00
2022-09-30T12:24:29.680Z,0.00
2022-09-30T12:25:29.718Z,0.00
2022-09-30T12:26:30.096Z,0.00
2022-09-30T12:27:29.700Z,0.00
2022-09-30T12:28:29.763Z,0.00
2022-09-30T12:29:29.771Z,0.00
2022-09-30T12:30:29.761Z,0.00
2022-09-30T12:31:29.827Z,0.00
2022-09-30T12:32:29.758Z,0.00
2022-09-30T12:33:29.780Z,0.00
2022-09-30T12:34:29.812Z,0.00
2022-09-30T12:35:29.814Z,0.00
2022-09-30T12:36:30.197Z,0.00
2022-09-30T12:37:29.844Z,0.00
2022-09-30T12:38:29.883Z,0.00
2022-09-30T12:39:29.844Z,0.00
2022-09-30T12:40:29.883Z,0.00
2022-09-30T12:41:29.884Z,0.00
2022-09-30T12:42:29.909Z,0.00
2022-09-30T12:43:29.895Z,0.00
2022-09-30T12:44:29.925Z,0.00
2022-09-30T12:45:30.019Z,0.00
2022-09-30T12:46:30.215Z,0.00
2022-09-30T12:47:29.957Z,0.00
2022-09-30T12:48:30.006Z,0.00
2022-09-30T12:49:30.013Z,0.00
2022-09-30T12:50:30.070Z,0.00
2022-09-30T12:51:30.038Z,0.00
2022-09-30T12:52:30.067Z,0.00
2022-09-30T12:53:30.125Z,0.00
2022-09-30T12:54:30.087Z,0.00
2022-09-30T12:55:30.144Z,0.00
2022-09-30T12:56:30.343Z,0.00
2022-09-30T12:57:30.122Z,0.00
2022-09-30T12:58:31.104Z,0.00
2022-09-30T12:59:30.122Z,0.00
2022-09-30T13:00:30.192Z,0.00
2022-09-30T13:01:30.193Z,0.00
2022-09-30T13:02:30.847Z,0.00
2022-09-30T13:03:30.177Z,0.00
2022-09-30T13:04:30.213Z,0.00
2022-09-30T13:05:30.226Z,0.00